Time;durP1;ratioP1;P1;durP2;ratioP2;P2;SDS_P1;SDS_P2;PMS_P1;PMS_P2;Temp;Humidity;BMP_temperature;BMP_pressure;BME280_temperature;BME280_humidity;BME280_pressure;Samples;Min_cycle;Max_cycle;Signal;HPM_P1;HPM_P2
2022/01/19 00:01:20;;;;;;;16.17;13.80;;;9.20;99.90;;;;;;4919729;29;21145;-61
2022/01/19 00:03:51;;;;;;;29.47;16.27;;;9.20;99.90;;;;;;4916536;29;20501;-63
2022/01/19 00:06:25;;;;;;;19.93;15.40;;;9.50;99.90;;;;;;4920211;29;20518;-63
2022/01/19 00:08:56;;;;;;;13.87;11.63;;;9.40;99.90;;;;;;4912831;29;20491;-62
2022/01/19 00:11:28;;;;;;;17.67;14.53;;;9.50;99.90;;;;;;4922806;29;20522;-62
2022/01/19 00:14:01;;;;;;;17.70;14.60;;;9.50;99.90;;;;;;4914935;29;20547;-62
2022/01/19 00:16:32;;;;;;;17.75;15.85;;;9.50;99.90;;;;;;4913369;29;20458;-62
2022/01/19 00:19:03;;;;;;;20.33;15.20;;;9.50;99.90;;;;;;4908991;29;20210;-63
2022/01/19 00:21:37;;;;;;;15.63;14.00;;;9.40;99.90;;;;;;4914912;29;20467;-63
2022/01/19 00:24:07;;;;;;;19.90;15.70;;;9.40;99.90;;;;;;4924729;29;20225;-62
2022/01/19 00:26:48;;;;;;;19.20;14.67;;;9.40;99.90;;;;;;4911873;29;20648;-62
2022/01/19 00:29:23;;;;;;;18.43;15.33;;;9.30;99.90;;;;;;4924704;29;20908;-61
2022/01/19 00:31:53;;;;;;;21.27;15.70;;;9.30;99.90;;;;;;4917425;29;20443;-62
2022/01/19 00:34:24;;;;;;;17.97;14.43;;;9.30;99.90;;;;;;4923254;29;20487;-68
2022/01/19 00:36:56;;;;;;;19.57;15.40;;;9.40;99.90;;;;;;4921608;29;20838;-63
2022/01/19 00:39:32;;;;;;;18.63;15.33;;;9.40;99.90;;;;;;4921734;29;20465;-62
2022/01/19 00:42:04;;;;;;;19.77;14.43;;;9.30;99.90;;;;;;4924485;29;20530;-62
2022/01/19 00:44:58;;;;;;;19.77;16.60;;;9.30;99.90;;;;;;4914901;29;20496;-62
2022/01/19 00:47:36;;;;;;;19.13;14.40;;;9.20;99.90;;;;;;4911589;29;20491;-63
2022/01/19 00:50:09;;;;;;;19.83;16.70;;;9.30;99.90;;;;;;4926255;29;20451;-62
2022/01/19 00:52:40;;;;;;;20.43;16.20;;;9.30;99.90;;;;;;4923462;29;20521;-62
2022/01/19 00:55:16;;;;;;;20.97;16.53;;;9.30;99.90;;;;;;4925307;29;20482;-62
2022/01/19 00:57:47;;;;;;;21.97;16.70;;;9.30;99.90;;;;;;4925768;29;20837;-62
2022/01/19 01:00:25;;;;;;;22.60;18.07;;;9.20;99.90;;;;;;4925757;29;20530;-61
2022/01/19 01:03:00;;;;;;;23.27;18.10;;;9.10;99.90;;;;;;4921210;29;20534;-61
2022/01/19 01:05:34;;;;;;;24.13;19.23;;;9.20;99.90;;;;;;4929148;29;20486;-62
2022/01/19 01:08:06;;;;;;;24.63;18.83;;;9.30;99.90;;;;;;4930134;29;20497;-62
2022/01/19 01:10:42;;;;;;;23.15;17.65;;;9.30;99.90;;;;;;4922699;29;20487;-62
2022/01/19 01:13:30;;;;;;;28.97;18.87;;;9.20;99.90;;;;;;4917879;29;20243;-62
2022/01/19 01:16:33;;;;;;;20.23;17.07;;;9.10;99.90;;;;;;4915603;29;20475;-62
2022/01/19 01:19:07;;;;;;;29.40;20.53;;;9.10;99.90;;;;;;4918922;29;20462;-62
2022/01/19 01:21:42;;;;;;;24.70;18.83;;;9.10;99.90;;;;;;4924998;29;20466;-64
2022/01/19 01:24:15;;;;;;;24.47;18.20;;;9.10;99.90;;;;;;4918148;29;20301;-63
2022/01/19 01:26:46;;;;;;;22.57;18.00;;;9.10;99.90;;;;;;4927116;29;20455;-63
2022/01/19 01:29:17;;;;;;;32.05;20.13;;;9.20;99.90;;;;;;4922483;29;20478;-63
2022/01/19 01:31:49;;;;;;;180.53;52.50;;;9.20;99.90;;;;;;4929730;29;20222;-63
2022/01/19 01:34:21;;;;;;;36.83;21.03;;;9.30;99.90;;;;;;4924488;29;20454;-63
2022/01/19 01:36:51;;;;;;;28.13;20.37;;;9.30;99.90;;;;;;4916382;29;21030;-62
2022/01/19 01:39:22;;;;;;;27.93;20.90;;;9.20;99.90;;;;;;4927589;29;20826;-63
2022/01/19 01:41:53;;;;;;;29.40;20.43;;;9.30;99.90;;;;;;4928243;29;20993;-64
2022/01/19 01:44:26;;;;;;;31.93;22.63;;;9.20;99.90;;;;;;4920082;29;20546;-63
2022/01/19 01:47:00;;;;;;;29.87;23.03;;;9.10;99.90;;;;;;4921300;29;20490;-63
2022/01/19 01:53:16;;;;;;;31.43;20.77;;;9.10;99.90;;;;;;4921372;29;20514;-62
2022/01/19 01:55:24;;;;;;;33.80;22.20;;;9.20;99.90;;;;;;4917719;29;20460;-62
2022/01/19 01:57:55;;;;;;;31.90;21.60;;;9.20;99.90;;;;;;4913696;29;20531;-62
2022/01/19 02:00:28;;;;;;;25.83;21.95;;;9.00;99.90;;;;;;4923467;29;21136;-62
2022/01/19 02:03:00;;;;;;;27.10;19.73;;;9.00;99.90;;;;;;4925250;29;20610;-63
2022/01/19 02:05:35;;;;;;;30.60;21.63;;;9.10;99.90;;;;;;4925001;29;20228;-62
2022/01/19 02:08:16;;;;;;;28.40;19.07;;;9.10;99.90;;;;;;4921900;29;20944;-61
2022/01/19 02:11:02;;;;;;;26.55;19.92;;;9.00;99.90;;;;;;4914137;29;20500;-61
2022/01/19 02:16:32;;;;;;;26.53;20.10;;;9.00;99.90;;;;;;4920350;29;20210;-62
2022/01/19 02:22:00;;;;;;;28.00;19.53;;;8.90;99.90;;;;;;4922143;29;20803;-62
2022/01/19 02:24:41;;;;;;;27.70;19.40;;;9.00;99.90;;;;;;4917952;29;20495;-62
2022/01/19 02:41:31;;;;;;;20.93;16.83;;;9.10;99.90;;;;;;4869799;29;20993;-61
2022/01/19 02:44:01;;;;;;;25.43;16.13;;;9.10;99.90;;;;;;4868468;29;20457;-61
2022/01/19 02:46:54;;;;;;;21.80;17.15;;;9.00;99.90;;;;;;4867213;29;20996;-63
2022/01/19 02:49:25;;;;;;;20.98;16.75;;;9.00;99.90;;;;;;4867981;29;20234;-61
2022/01/19 02:51:57;;;;;;;19.57;17.27;;;9.00;99.90;;;;;;4869803;29;20251;-62
2022/01/19 02:54:38;;;;;;;18.23;15.53;;;9.00;99.90;;;;;;4869943;29;20446;-63
2022/01/19 02:57:11;;;;;;;24.40;15.60;;;8.90;99.90;;;;;;4872258;29;20467;-62
2022/01/19 03:00:02;;;;;;;23.40;18.33;;;8.90;99.90;;;;;;4869180;29;20524;-60
2022/01/19 03:11:01;;;;;;;22.80;16.63;;;9.00;99.90;;;;;;4900548;29;21043;-62
2022/01/19 03:13:32;;;;;;;18.92;14.95;;;9.10;99.90;;;;;;4896859;29;20464;-62
2022/01/19 03:16:03;;;;;;;21.77;16.07;;;9.00;99.90;;;;;;4898643;29;20206;-62
2022/01/19 03:18:34;;;;;;;21.65;16.58;;;9.10;99.90;;;;;;4904651;29;20481;-62
2022/01/19 03:21:06;;;;;;;25.57;18.60;;;9.20;99.90;;;;;;4901257;29;20217;-63
2022/01/19 03:23:37;;;;;;;187.05;43.13;;;9.20;99.90;;;;;;4902168;29;20464;-62
2022/01/19 03:26:09;;;;;;;665.85;129.90;;;9.10;99.90;;;;;;4902392;29;20247;-61
2022/01/19 03:28:40;;;;;;;25.98;17.55;;;9.30;99.90;;;;;;4897853;29;20310;-62
2022/01/19 03:31:12;;;;;;;24.63;18.60;;;9.10;99.90;;;;;;4902352;29;20263;-61
2022/01/19 03:33:44;;;;;;;26.60;19.50;;;9.00;99.90;;;;;;4905045;29;20523;-62
2022/01/19 03:36:15;;;;;;;25.30;18.33;;;9.00;99.90;;;;;;4905321;29;20206;-62
2022/01/19 03:38:46;;;;;;;25.10;18.70;;;9.00;99.90;;;;;;4903751;29;20469;-62
2022/01/19 03:41:19;;;;;;;25.70;19.37;;;9.00;99.90;;;;;;4906231;29;20480;-63
2022/01/19 03:43:51;;;;;;;29.77;20.23;;;9.00;99.90;;;;;;4902561;29;20447;-62
2022/01/19 03:46:29;;;;;;;23.03;17.80;;;9.10;99.90;;;;;;4899129;29;20531;-62
2022/01/19 03:49:09;;;;;;;27.10;19.35;;;9.10;99.90;;;;;;4887680;29;20478;-62
2022/01/19 03:51:40;;;;;;;22.57;18.03;;;9.10;99.90;;;;;;4878265;29;20346;-62
2022/01/19 03:54:11;;;;;;;24.15;19.73;;;9.10;99.90;;;;;;4879388;29;20505;-63
2022/01/19 03:56:43;;;;;;;25.00;18.73;;;9.10;99.90;;;;;;4877072;29;20215;-62
2022/01/19 03:59:15;;;;;;;31.43;20.20;;;9.10;99.90;;;;;;4875145;29;21017;-64
2022/01/19 04:01:46;;;;;;;40.28;25.80;;;9.10;99.90;;;;;;4883692;29;20613;-61
2022/01/19 04:04:33;;;;;;;37.77;25.97;;;9.00;99.90;;;;;;4879058;29;20200;-62
2022/01/19 04:07:09;;;;;;;35.70;23.03;;;9.10;99.90;;;;;;4875951;29;20460;-62
2022/01/19 04:09:42;;;;;;;33.60;23.27;;;9.10;99.90;;;;;;4880879;29;20596;-61
2022/01/19 04:12:19;;;;;;;793.42;149.45;;;9.10;99.90;;;;;;4880481;29;20532;-62
2022/01/19 04:14:50;;;;;;;34.93;24.20;;;9.20;99.90;;;;;;4879658;29;20204;-62
2022/01/19 04:17:24;;;;;;;255.97;60.50;;;9.10;99.90;;;;;;4879209;29;21040;-63
2022/01/19 04:19:56;;;;;;;45.00;26.00;;;9.20;99.90;;;;;;4884669;29;21559;-63
2022/01/19 04:22:27;;;;;;;36.85;26.27;;;9.10;99.90;;;;;;4888408;29;20445;-63
2022/01/19 04:24:58;;;;;;;45.83;26.47;;;9.10;99.90;;;;;;4875954;29;20231;-64
2022/01/19 04:27:33;;;;;;;46.47;26.20;;;9.00;99.90;;;;;;4881399;29;20468;-63
2022/01/19 04:30:11;;;;;;;33.90;23.83;;;8.90;99.90;;;;;;4887840;29;20575;-63
2022/01/19 04:32:48;;;;;;;35.10;23.80;;;8.80;99.90;;;;;;4887182;29;20208;-63
2022/01/19 04:35:26;;;;;;;38.60;24.50;;;8.80;99.90;;;;;;4881308;29;20223;-63
2022/01/19 04:38:47;;;;;;;31.70;22.63;;;8.80;99.90;;;;;;4885208;29;20483;-63
2022/01/19 04:44:27;;;;;;;43.97;25.25;;;8.80;99.90;;;;;;4882543;29;20453;-63
2022/01/19 05:04:04;;;;;;;46.42;27.42;;;8.90;99.90;;;;;;4925322;29;20501;-63
2022/01/19 05:06:40;;;;;;;48.65;28.75;;;8.80;99.90;;;;;;4925013;29;20217;-63
2022/01/19 05:09:26;;;;;;;42.93;28.67;;;9.00;99.90;;;;;;4923101;29;20213;-64
2022/01/19 05:14:44;;;;;;;44.50;28.48;;;8.90;99.90;;;;;;4911938;29;20250;-61
2022/01/19 05:17:20;;;;;;;43.85;29.02;;;8.90;99.90;;;;;;4917263;29;20198;-61
2022/01/19 05:19:51;;;;;;;43.83;27.47;;;8.90;99.90;;;;;;4916476;29;20270;-61
2022/01/19 05:22:25;;;;;;;54.72;28.65;;;8.90;99.90;;;;;;4925590;29;20574;-61
2022/01/19 05:24:56;;;;;;;43.50;29.60;;;8.90;99.90;;;;;;4920517;29;20203;-60
2022/01/19 05:27:28;;;;;;;51.53;28.30;;;8.90;99.90;;;;;;4925535;29;20463;-61
2022/01/19 05:30:11;;;;;;;41.45;26.33;;;8.80;99.90;;;;;;4917668;29;20520;-61
2022/01/19 05:32:44;;;;;;;42.70;26.63;;;8.80;99.90;;;;;;4918731;29;20558;-61
2022/01/19 05:35:16;;;;;;;44.90;26.58;;;8.80;99.90;;;;;;4919149;29;20214;-60
2022/01/19 05:37:50;;;;;;;42.03;25.97;;;8.80;99.90;;;;;;4925186;29;20662;-60
2022/01/19 05:40:23;;;;;;;46.13;31.83;;;8.90;99.90;;;;;;4924504;29;20462;-60
2022/01/19 05:42:57;;;;;;;44.95;28.85;;;8.90;99.90;;;;;;4925247;29;20461;-61
2022/01/19 05:45:29;;;;;;;44.55;28.17;;;8.90;99.90;;;;;;4914744;29;20939;-61
2022/01/19 05:48:06;;;;;;;38.93;25.83;;;8.90;99.90;;;;;;4924304;29;20345;-62
2022/01/19 05:50:37;;;;;;;39.03;26.70;;;8.90;99.90;;;;;;4921625;29;20533;-61
2022/01/19 05:53:11;;;;;;;41.33;25.67;;;9.00;99.90;;;;;;4927251;29;20459;-61
2022/01/19 05:55:42;;;;;;;36.88;26.10;;;9.00;99.90;;;;;;4927409;29;20215;-61
2022/01/19 05:58:13;;;;;;;40.37;26.53;;;9.00;99.90;;;;;;4922257;29;20207;-61
2022/01/19 06:00:44;;;;;;;40.25;26.10;;;8.90;99.90;;;;;;4918312;29;20474;-62
2022/01/19 06:03:17;;;;;;;35.97;27.20;;;8.80;99.90;;;;;;4926265;29;21914;-61
2022/01/19 06:05:48;;;;;;;37.40;26.17;;;8.80;99.90;;;;;;4928460;29;20198;-61
2022/01/19 06:08:39;;;;;;;35.37;23.77;;;8.80;99.90;;;;;;4928011;29;20462;-61
2022/01/19 06:11:11;;;;;;;35.87;26.93;;;8.70;99.90;;;;;;4917391;29;20499;-62
2022/01/19 06:13:42;;;;;;;40.30;25.83;;;8.70;99.90;;;;;;4923239;29;20460;-62
2022/01/19 06:16:13;;;;;;;43.53;28.30;;;8.80;99.90;;;;;;4922290;29;20469;-62
2022/01/19 06:18:45;;;;;;;43.17;26.37;;;8.80;99.90;;;;;;4924627;29;20465;-62
2022/01/19 06:21:16;;;;;;;41.53;26.00;;;8.80;99.90;;;;;;4920732;29;20454;-63
2022/01/19 06:23:48;;;;;;;44.03;28.03;;;8.80;99.90;;;;;;4918015;29;20213;-61
2022/01/19 06:26:18;;;;;;;41.93;24.90;;;8.80;99.90;;;;;;4926734;29;20534;-61
2022/01/19 06:28:49;;;;;;;44.70;27.50;;;8.90;99.90;;;;;;4915954;29;20471;-63
2022/01/19 06:31:20;;;;;;;42.38;28.27;;;9.00;99.90;;;;;;4926273;29;20486;-61
2022/01/19 06:33:58;;;;;;;44.17;26.50;;;9.00;99.90;;;;;;4926449;29;20297;-61
2022/01/19 06:36:29;;;;;;;46.22;30.25;;;8.80;99.90;;;;;;4925739;29;20450;-60
2022/01/19 06:39:00;;;;;;;46.85;29.58;;;8.90;99.90;;;;;;4916561;29;20203;-61
2022/01/19 06:41:31;;;;;;;46.83;27.90;;;8.90;99.90;;;;;;4916850;29;20226;-61
2022/01/19 06:44:02;;;;;;;45.50;27.07;;;8.90;99.90;;;;;;4918173;29;20464;-61
2022/01/19 06:46:33;;;;;;;48.08;27.02;;;8.80;99.90;;;;;;4925163;29;20474;-61
2022/01/19 06:49:06;;;;;;;48.70;27.30;;;8.90;99.90;;;;;;4923064;29;20238;-61
2022/01/19 06:51:37;;;;;;;43.90;27.77;;;8.90;99.90;;;;;;4928110;29;20484;-61
2022/01/19 06:54:13;;;;;;;45.78;29.05;;;8.90;99.90;;;;;;4926836;29;20203;-61
2022/01/19 06:56:44;;;;;;;43.70;25.63;;;8.90;99.90;;;;;;4927114;29;20261;-61
2022/01/19 06:59:19;;;;;;;43.60;23.92;;;8.80;99.90;;;;;;4922470;29;20490;-63
2022/01/19 07:01:50;;;;;;;46.90;27.38;;;8.80;99.90;;;;;;4919716;29;20207;-63
2022/01/19 07:04:28;;;;;;;44.83;25.90;;;8.70;99.90;;;;;;4924153;29;20358;-64
2022/01/19 07:06:59;;;;;;;42.10;25.73;;;8.60;99.90;;;;;;4924723;29;20211;-61
2022/01/19 07:09:38;;;;;;;43.95;27.83;;;8.50;99.90;;;;;;4918594;29;20458;-62
2022/01/19 07:12:11;;;;;;;40.90;28.02;;;8.50;99.90;;;;;;4922532;29;20301;-62
2022/01/19 07:14:42;;;;;;;46.77;28.53;;;8.60;99.90;;;;;;4921424;29;20286;-62
2022/01/19 07:17:13;;;;;;;42.72;25.52;;;8.60;99.90;;;;;;4925535;29;20526;-61
2022/01/19 07:19:46;;;;;;;44.07;27.57;;;8.60;99.90;;;;;;4916549;29;20205;-62
2022/01/19 07:22:17;;;;;;;46.17;27.10;;;8.50;99.90;;;;;;4927993;29;20833;-62
2022/01/19 07:24:51;;;;;;;37.05;22.33;;;8.50;99.90;;;;;;4923065;29;20468;-61
2022/01/19 07:27:22;;;;;;;45.77;27.13;;;8.50;99.90;;;;;;4927601;29;20202;-61
2022/01/19 07:29:59;;;;;;;50.40;28.23;;;8.60;99.90;;;;;;4917430;29;20467;-62
2022/01/19 07:32:33;;;;;;;43.08;26.52;;;8.60;99.90;;;;;;4926097;29;20498;-62
2022/01/19 07:35:08;;;;;;;46.67;29.00;;;8.60;99.90;;;;;;4918533;29;20270;-62
2022/01/19 07:37:39;;;;;;;48.88;28.63;;;8.70;99.90;;;;;;4927431;29;20482;-62
2022/01/19 07:40:12;;;;;;;50.22;27.45;;;8.70;99.90;;;;;;4915010;29;20252;-61
2022/01/19 07:42:43;;;;;;;45.17;27.10;;;8.60;99.90;;;;;;4920955;29;20370;-61
2022/01/19 07:45:15;;;;;;;50.83;27.15;;;8.50;99.90;;;;;;4919128;29;20212;-61
2022/01/19 07:47:46;;;;;;;44.72;26.15;;;8.60;99.90;;;;;;4921688;29;20317;-62
2022/01/19 07:50:19;;;;;;;46.67;25.83;;;8.60;99.90;;;;;;4925206;29;20237;-62
2022/01/19 07:52:50;;;;;;;45.00;26.38;;;8.60;99.90;;;;;;4924018;29;20281;-61
2022/01/19 07:55:21;;;;;;;44.53;24.60;;;8.60;99.90;;;;;;4923049;29;20195;-62
2022/01/19 07:57:51;;;;;;;46.87;25.20;;;8.60;99.90;;;;;;4924077;29;20210;-62
2022/01/19 08:00:25;;;;;;;48.20;24.73;;;8.60;99.90;;;;;;4915396;29;20456;-61
2022/01/19 08:02:56;;;;;;;38.47;24.60;;;8.60;99.90;;;;;;4927196;29;20465;-62
2022/01/19 08:05:29;;;;;;;39.33;24.73;;;8.60;99.90;;;;;;4925560;29;20963;-61
2022/01/19 08:08:03;;;;;;;43.07;23.60;;;8.70;99.90;;;;;;4922420;29;20507;-62
2022/01/19 08:10:34;;;;;;;42.10;25.15;;;8.70;99.90;;;;;;4913185;29;20479;-61
2022/01/19 08:13:05;;;;;;;43.88;25.33;;;8.80;99.90;;;;;;4924351;29;20282;-61
2022/01/19 08:15:36;;;;;;;45.50;26.17;;;8.70;99.90;;;;;;4923203;29;20325;-61
2022/01/19 08:18:07;;;;;;;51.00;26.52;;;8.70;99.90;;;;;;4916250;29;20234;-61
2022/01/19 08:20:43;;;;;;;46.22;25.00;;;8.60;99.90;;;;;;4919366;29;20215;-60
2022/01/19 08:23:13;;;;;;;40.38;25.85;;;8.60;99.90;;;;;;4923041;29;20199;-61
2022/01/19 08:25:44;;;;;;;46.45;25.35;;;8.60;99.90;;;;;;4925470;29;20203;-61
2022/01/19 08:28:17;;;;;;;39.22;24.40;;;8.60;99.90;;;;;;4920833;29;20205;-61
2022/01/19 08:30:48;;;;;;;44.20;24.58;;;8.60;99.90;;;;;;4925648;29;20549;-61
2022/01/19 08:33:20;;;;;;;43.55;24.05;;;8.70;99.90;;;;;;4922784;29;20234;-61
2022/01/19 08:35:52;;;;;;;45.10;24.52;;;8.80;99.90;;;;;;4925758;29;20788;-61
2022/01/19 08:38:23;;;;;;;40.25;23.45;;;8.80;99.90;;;;;;4913430;29;20203;-61
2022/01/19 08:40:54;;;;;;;40.47;24.10;;;8.70;99.90;;;;;;4910130;29;20299;-61
2022/01/19 08:43:27;;;;;;;40.60;23.88;;;8.60;99.90;;;;;;4925622;29;20211;-61
2022/01/19 08:45:58;;;;;;;40.08;23.85;;;8.50;99.90;;;;;;4922355;29;20234;-61
2022/01/19 08:48:29;;;;;;;39.53;24.63;;;8.50;99.90;;;;;;4919525;29;20241;-61
2022/01/19 08:51:02;;;;;;;39.47;25.20;;;8.50;99.90;;;;;;4921062;29;20214;-61
2022/01/19 08:53:33;;;;;;;44.65;24.08;;;8.50;99.90;;;;;;4920629;29;20324;-61
2022/01/19 08:56:04;;;;;;;39.10;24.03;;;8.60;99.90;;;;;;4923514;29;20275;-61
2022/01/19 08:58:37;;;;;;;41.80;24.27;;;8.60;99.90;;;;;;4909018;29;20455;-61
2022/01/19 09:01:08;;;;;;;41.93;23.63;;;8.60;99.90;;;;;;4924153;29;20460;-61
2022/01/19 09:03:39;;;;;;;42.13;24.10;;;8.60;99.90;;;;;;4925439;29;20514;-61
2022/01/19 09:06:12;;;;;;;40.67;22.90;;;8.60;99.90;;;;;;4923846;29;20200;-61
2022/01/19 09:08:44;;;;;;;39.17;23.70;;;8.60;99.90;;;;;;4916605;29;20230;-60
2022/01/19 09:11:15;;;;;;;37.97;23.80;;;8.70;99.90;;;;;;4924852;29;20302;-61
2022/01/19 09:13:50;;;;;;;42.53;24.00;;;8.60;99.90;;;;;;4918897;29;20526;-61
2022/01/19 09:16:20;;;;;;;38.92;23.65;;;8.80;99.90;;;;;;4917515;29;20217;-61
2022/01/19 09:18:51;;;;;;;44.72;24.75;;;8.80;99.90;;;;;;4922331;29;20384;-61
2022/01/19 09:21:24;;;;;;;33.80;21.43;;;8.70;99.90;;;;;;4915193;29;20215;-61
2022/01/19 09:23:55;;;;;;;35.47;21.33;;;8.70;99.90;;;;;;4922199;29;20532;-61
2022/01/19 09:26:25;;;;;;;43.05;23.98;;;8.70;99.90;;;;;;4928273;29;20270;-61
2022/01/19 09:28:56;;;;;;;37.30;23.98;;;8.60;99.90;;;;;;4924310;29;20229;-61
2022/01/19 09:31:36;;;;;;;41.70;25.25;;;8.80;99.90;;;;;;4925873;29;20214;-61
2022/01/19 09:34:10;;;;;;;41.63;23.80;;;8.80;99.90;;;;;;4925004;29;20784;-61
2022/01/19 09:36:46;;;;;;;39.60;23.93;;;8.70;99.90;;;;;;4925358;29;20443;-61
2022/01/19 09:39:19;;;;;;;36.45;23.80;;;8.70;99.90;;;;;;4918443;29;20446;-61
2022/01/19 09:41:51;;;;;;;38.63;22.70;;;8.60;99.90;;;;;;4925132;29;20215;-61
2022/01/19 09:44:23;;;;;;;37.95;22.50;;;8.70;99.90;;;;;;4928831;29;20469;-61
2022/01/19 09:46:54;;;;;;;31.40;20.53;;;8.70;99.90;;;;;;4921622;29;20202;-61
2022/01/19 09:49:25;;;;;;;36.47;21.93;;;8.60;99.90;;;;;;4924872;29;20481;-61
2022/01/19 09:51:57;;;;;;;34.93;21.40;;;8.60;99.90;;;;;;4928867;29;20457;-61
2022/01/19 09:54:30;;;;;;;37.08;21.83;;;8.60;99.90;;;;;;4926820;29;20466;-61
2022/01/19 09:57:01;;;;;;;34.53;21.60;;;8.60;99.90;;;;;;4923636;29;20580;-61
2022/01/19 09:59:37;;;;;;;31.47;19.30;;;8.60;99.90;;;;;;4925919;29;20461;-61
2022/01/19 10:02:11;;;;;;;34.65;19.80;;;8.70;99.90;;;;;;4921532;29;20462;-61
2022/01/19 10:04:45;;;;;;;34.00;20.75;;;8.70;99.90;;;;;;4924852;29;20214;-61
2022/01/19 10:07:19;;;;;;;30.73;19.95;;;8.60;99.90;;;;;;4928127;29;20252;-61
2022/01/19 10:09:58;;;;;;;36.78;22.33;;;8.70;99.90;;;;;;4922592;29;20225;-61
2022/01/19 10:18:13;;;;;;;30.85;20.02;;;8.80;99.90;;;;;;4918347;29;20458;-61
2022/01/19 10:20:44;;;;;;;32.67;21.20;;;8.70;99.90;;;;;;4923153;29;20199;-61
2022/01/19 10:23:40;;;;;;;30.25;19.50;;;8.60;99.90;;;;;;4921414;29;20452;-61
2022/01/19 10:26:14;;;;;;;25.43;16.93;;;8.70;99.90;;;;;;4914956;29;20229;-61
2022/01/19 10:29:01;;;;;;;27.33;18.65;;;8.80;99.90;;;;;;4927431;29;20454;-62
2022/01/19 10:31:33;;;;;;;30.50;19.30;;;8.80;99.90;;;;;;4927875;29;20191;-61
2022/01/19 10:34:16;;;;;;;31.42;18.48;;;8.70;99.90;;;;;;4923844;29;20246;-61
2022/01/19 10:36:49;;;;;;;28.23;18.10;;;8.60;99.90;;;;;;4925625;29;20198;-61
2022/01/19 10:39:24;;;;;;;26.17;16.33;;;8.60;99.90;;;;;;4925497;29;20463;-61
2022/01/19 10:42:03;;;;;;;28.80;18.30;;;8.70;99.90;;;;;;4926504;29;20210;-61
2022/01/19 10:44:36;;;;;;;22.15;16.20;;;8.80;99.90;;;;;;4917947;29;20234;-61
2022/01/19 10:47:49;;;;;;;29.65;18.27;;;8.90;99.90;;;;;;4922105;29;20234;-61
2022/01/19 10:50:25;;;;;;;25.95;16.70;;;8.70;99.90;;;;;;4925794;29;20277;-61
2022/01/19 10:52:57;;;;;;;24.95;16.42;;;8.60;99.90;;;;;;4921023;29;20233;-61
2022/01/19 10:55:32;;;;;;;26.42;17.35;;;8.80;99.90;;;;;;4922979;29;20266;-61
2022/01/19 10:58:04;;;;;;;24.85;16.13;;;8.80;99.90;;;;;;4924564;29;20224;-61
2022/01/19 11:00:37;;;;;;;21.92;15.88;;;8.70;99.90;;;;;;4926878;29;20309;-60
2022/01/19 11:03:18;;;;;;;21.80;14.75;;;8.60;99.90;;;;;;4927840;29;20203;-61
2022/01/19 11:05:50;;;;;;;18.27;13.10;;;8.60;99.90;;;;;;4920368;29;20229;-60
2022/01/19 11:08:23;;;;;;;17.23;13.77;;;8.70;99.90;;;;;;4928466;29;20257;-61
2022/01/19 11:11:01;;;;;;;19.20;13.73;;;8.60;99.90;;;;;;4924489;29;20225;-61
2022/01/19 11:13:38;;;;;;;16.97;12.83;;;8.60;99.90;;;;;;4925516;29;20262;-61
2022/01/19 11:16:09;;;;;;;18.00;12.50;;;8.60;99.90;;;;;;4913135;29;20526;-60
2022/01/19 11:18:42;;;;;;;14.50;11.77;;;8.60;99.90;;;;;;4920687;29;20487;-60
2022/01/19 11:21:14;;;;;;;12.97;11.30;;;8.60;99.90;;;;;;4914726;29;20460;-61
2022/01/19 11:23:57;;;;;;;14.40;11.05;;;8.70;99.90;;;;;;4923744;29;20463;-61
2022/01/19 11:26:33;;;;;;;12.50;10.45;;;8.70;99.90;;;;;;4923005;29;20206;-61
2022/01/19 11:29:18;;;;;;;13.20;10.35;;;8.70;99.90;;;;;;4919366;29;20199;-61
2022/01/19 11:31:49;;;;;;;15.05;11.50;;;8.70;99.90;;;;;;4925341;29;20274;-61
2022/01/19 11:34:40;;;;;;;14.38;10.45;;;8.60;99.90;;;;;;4914449;29;20283;-61
2022/01/19 11:37:11;;;;;;;14.23;10.13;;;8.60;99.90;;;;;;4916275;29;20210;-61
2022/01/19 11:40:04;;;;;;;9.68;8.13;;;8.60;99.90;;;;;;4923336;29;20475;-62
2022/01/19 11:42:37;;;;;;;9.50;8.05;;;8.60;99.90;;;;;;4921864;29;20222;-61
2022/01/19 11:45:30;;;;;;;10.75;7.82;;;8.60;99.90;;;;;;4924594;29;20643;-60
2022/01/19 11:48:16;;;;;;;10.05;9.00;;;8.70;99.90;;;;;;4914766;29;20246;-61
2022/01/19 11:50:47;;;;;;;9.63;6.82;;;8.70;99.90;;;;;;4921812;29;20627;-61
2022/01/19 11:53:18;;;;;;;9.15;7.53;;;8.70;99.90;;;;;;4925521;29;20306;-61
2022/01/19 11:56:08;;;;;;;7.28;6.57;;;8.70;99.90;;;;;;4924968;29;20214;-62
2022/01/19 11:59:01;;;;;;;7.22;6.53;;;8.80;99.90;;;;;;4926006;29;20218;-61
2022/01/19 12:01:32;;;;;;;7.63;6.82;;;8.80;99.90;;;;;;4918233;29;20241;-61
2022/01/19 12:04:18;;;;;;;8.60;6.95;;;8.70;99.90;;;;;;4925317;29;20238;-61
2022/01/19 12:06:49;;;;;;;7.80;6.40;;;8.70;99.90;;;;;;4920184;29;20242;-61
2022/01/19 12:09:21;;;;;;;7.57;6.50;;;8.70;99.90;;;;;;4918524;29;20457;-62
2022/01/19 12:12:14;;;;;;;6.90;6.20;;;8.60;99.90;;;;;;4922702;29;20447;-61
2022/01/19 12:14:51;;;;;;;9.32;6.22;;;8.60;99.90;;;;;;4909927;29;20642;-61
2022/01/19 12:17:27;;;;;;;6.97;6.38;;;8.80;99.90;;;;;;4914392;29;20214;-61
2022/01/19 12:20:01;;;;;;;6.75;6.15;;;8.80;99.90;;;;;;4921561;29;20220;-61
2022/01/19 12:22:34;;;;;;;7.03;6.30;;;8.80;99.90;;;;;;4924371;29;20211;-61
2022/01/19 12:25:09;;;;;;;6.80;6.20;;;8.80;99.90;;;;;;4923828;29;20794;-62
2022/01/19 12:27:44;;;;;;;7.90;7.10;;;8.80;99.90;;;;;;4914148;29;20209;-61
2022/01/19 12:30:18;;;;;;;6.07;5.37;;;8.70;99.90;;;;;;4925322;29;20440;-62
2022/01/19 12:32:54;;;;;;;6.47;5.88;;;8.70;99.90;;;;;;4920633;29;20548;-62
2022/01/19 12:35:35;;;;;;;6.30;5.10;;;8.80;99.90;;;;;;4913685;29;20230;-61
2022/01/19 12:38:09;;;;;;;6.10;5.50;;;8.80;99.90;;;;;;4923490;29;20276;-62
2022/01/19 12:40:43;;;;;;;6.40;5.50;;;8.80;99.90;;;;;;4923406;29;20282;-62
2022/01/19 12:43:29;;;;;;;6.43;5.82;;;8.80;99.90;;;;;;4912024;29;20577;-62
2022/01/19 12:46:03;;;;;;;6.00;5.33;;;8.80;99.90;;;;;;4922838;29;20226;-62
2022/01/19 12:48:45;;;;;;;5.90;5.37;;;8.70;99.90;;;;;;4914206;29;20603;-62
2022/01/19 12:51:41;;;;;;;6.80;6.13;;;8.70;99.90;;;;;;4926677;29;20455;-62
2022/01/19 12:54:16;;;;;;;5.70;4.77;;;8.70;99.90;;;;;;4911775;29;20225;-61
2022/01/19 12:56:58;;;;;;;7.23;5.40;;;8.70;99.90;;;;;;4923177;29;20947;-61
2022/01/19 12:59:28;;;;;;;6.28;5.53;;;8.70;99.90;;;;;;4924412;29;20469;-61
2022/01/19 13:02:03;;;;;;;5.70;5.20;;;8.70;99.90;;;;;;4918105;29;20213;-61
2022/01/19 13:04:36;;;;;;;5.90;4.93;;;8.70;99.90;;;;;;4914846;29;20213;-59
2022/01/19 13:07:17;;;;;;;6.07;5.40;;;8.80;99.90;;;;;;4925181;29;20853;-60
2022/01/19 13:10:20;;;;;;;5.07;4.57;;;8.90;99.90;;;;;;4914240;29;20950;-61
2022/01/19 13:12:57;;;;;;;6.10;5.50;;;8.90;99.90;;;;;;4915498;29;20289;-61
2022/01/19 13:15:44;;;;;;;5.80;5.30;;;8.90;99.90;;;;;;4923991;29;20302;-60
2022/01/19 13:18:30;;;;;;;4.80;4.40;;;8.80;99.90;;;;;;4912456;29;20452;-60
2022/01/19 13:21:03;;;;;;;5.63;4.75;;;8.80;99.90;;;;;;4923144;29;20550;-61
2022/01/19 13:23:36;;;;;;;4.97;4.47;;;8.80;99.90;;;;;;4916681;29;20233;-61
2022/01/19 13:26:10;;;;;;;4.80;4.38;;;8.80;99.90;;;;;;4919311;29;20219;-61
2022/01/19 13:28:40;;;;;;;5.95;5.32;;;8.90;99.90;;;;;;4920332;29;20203;-62
2022/01/19 13:31:13;;;;;;;5.00;4.60;;;8.80;99.90;;;;;;4917515;29;20293;-61
2022/01/19 13:33:55;;;;;;;6.13;4.85;;;8.90;99.90;;;;;;4919625;29;20207;-60
2022/01/19 13:36:30;;;;;;;4.22;3.92;;;8.90;99.90;;;;;;4924864;29;20218;-61
2022/01/19 13:39:01;;;;;;;5.78;5.18;;;8.90;99.90;;;;;;4922952;29;20206;-60
2022/01/19 13:41:32;;;;;;;4.67;4.27;;;8.90;99.90;;;;;;4924162;29;20221;-60
2022/01/19 13:44:08;;;;;;;3.65;3.33;;;8.90;99.90;;;;;;4914503;29;20664;-61
2022/01/19 13:46:40;;;;;;;4.23;3.80;;;8.90;99.90;;;;;;4923890;29;20201;-61
2022/01/19 13:49:12;;;;;;;4.93;3.60;;;8.90;99.90;;;;;;4921331;29;20508;-61
2022/01/19 13:51:45;;;;;;;4.30;3.88;;;8.80;99.90;;;;;;4923773;29;20478;-61
2022/01/19 13:54:17;;;;;;;4.10;3.80;;;8.90;99.90;;;;;;4923890;29;20242;-61
2022/01/19 13:56:47;;;;;;;5.23;4.27;;;8.90;99.90;;;;;;4923985;29;20465;-61
2022/01/19 13:59:20;;;;;;;3.63;3.33;;;9.00;99.90;;;;;;4920103;29;20477;-61
2022/01/19 14:01:57;;;;;;;4.70;3.83;;;8.90;99.90;;;;;;4911223;29;20463;-61
2022/01/19 14:04:34;;;;;;;4.60;4.20;;;8.80;99.90;;;;;;4921083;29;20938;-61
2022/01/19 14:07:10;;;;;;;4.23;3.63;;;8.90;99.90;;;;;;4910331;29;20535;-61
2022/01/19 14:09:41;;;;;;;4.80;4.30;;;8.80;99.90;;;;;;4917168;29;20462;-61
2022/01/19 14:12:16;;;;;;;6.13;4.33;;;8.90;99.90;;;;;;4915996;29;20203;-61
2022/01/19 14:14:55;;;;;;;6.45;3.90;;;8.90;99.90;;;;;;4925787;29;20483;-61
2022/01/19 14:17:27;;;;;;;3.95;3.55;;;8.80;99.90;;;;;;4927700;29;20213;-61
2022/01/19 14:20:01;;;;;;;7.53;4.23;;;8.90;99.90;;;;;;4924679;29;20250;-61